Time;durP1;ratioP1;P1;durP2;ratioP2;P2;SDS_P1;SDS_P2;PMS_P1;PMS_P2;Temp;Humidity;BMP_temperature;BMP_pressure;BME280_temperature;BME280_humidity;BME280_pressure;Samples;Min_cycle;Max_cycle;Signal;HPM_P1;HPM_P2
2022/12/22 03:28:11;;;;;;;36.17;17.80;;;;;;;2.09;100.00;95516.03;5070744;28;20515;-74
2022/12/22 03:30:38;;;;;;;30.10;19.00;;;;;;;2.13;100.00;95519.59;5069094;28;20792;-74
2022/12/22 03:33:05;;;;;;;26.80;19.37;;;;;;;2.23;100.00;95508.97;5071046;28;20563;-74
2022/12/22 03:35:32;;;;;;;29.97;17.10;;;;;;;2.30;100.00;95504.13;5069060;28;20440;-74
2022/12/22 03:38:02;;;;;;;31.17;19.77;;;;;;;2.35;100.00;95508.47;5060573;28;20424;-74
2022/12/22 03:40:30;;;;;;;28.17;18.47;;;;;;;2.06;100.00;95459.28;5055601;28;20462;-74
2022/12/22 03:48:27;;;;;;;22.27;17.33;;;;;;;2.41;100.00;95449.16;5077843;28;20522;-74
2022/12/22 03:50:54;;;;;;;23.67;16.87;;;;;;;2.31;100.00;95447.53;5080640;28;20432;-74
2022/12/22 03:53:20;;;;;;;26.63;15.77;;;;;;;2.45;100.00;95457.91;5072354;28;20548;-74
2022/12/22 03:55:47;;;;;;;24.27;15.37;;;;;;;2.63;100.00;95476.00;5063877;28;20437;-74
2022/12/22 03:58:14;;;;;;;23.10;15.70;;;;;;;2.72;100.00;95486.50;5074574;28;20456;-74
2022/12/22 04:00:40;;;;;;;18.80;15.03;;;;;;;2.49;100.00;95459.63;5072426;28;20497;-74
2022/12/22 04:03:07;;;;;;;25.87;16.57;;;;;;;2.70;100.00;95487.88;5055811;28;20506;-74
2022/12/22 04:05:34;;;;;;;23.77;16.63;;;;;;;2.55;100.00;95468.91;5060720;28;20432;-74
2022/12/22 04:08:01;;;;;;;21.47;16.57;;;;;;;2.76;100.00;95490.06;5072062;28;21281;-74
2022/12/22 04:13:12;;;;;;;18.13;13.37;;;;;;;2.50;100.00;95473.44;5078258;28;20486;-74
2022/12/22 04:15:39;;;;;;;21.17;16.87;;;;;;;2.44;100.00;95462.38;5072060;28;20471;-74
2022/12/22 04:18:06;;;;;;;25.30;17.03;;;;;;;2.59;100.00;95482.13;5072126;28;20424;-74
2022/12/22 04:20:33;;;;;;;22.00;14.43;;;;;;;2.37;100.00;95451.56;5069201;28;20491;-74
2022/12/22 04:23:00;;;;;;;17.47;13.70;;;;;;;2.57;100.00;95477.19;5061616;28;20557;-74
2022/12/22 04:25:28;;;;;;;20.80;16.47;;;;;;;2.47;100.00;95434.91;5071892;28;21263;-74
2022/12/22 04:27:55;;;;;;;19.80;15.27;;;;;;;2.89;100.00;95476.19;5072105;28;20513;-74
2022/12/22 04:30:24;;;;;;;21.60;15.90;;;;;;;2.59;100.00;95432.56;5071864;28;20531;-74
2022/12/22 04:32:51;;;;;;;20.43;14.57;;;;;;;2.64;100.00;95443.63;5071824;28;20456;-75
2022/12/22 04:35:18;;;;;;;19.57;14.80;;;;;;;2.73;100.00;95459.34;5058226;28;20531;-74
2022/12/22 04:37:44;;;;;;;21.63;13.80;;;;;;;2.77;100.00;95460.28;5071969;28;20420;-74
2022/12/22 04:40:12;;;;;;;24.53;16.83;;;;;;;2.92;100.00;95472.19;5071707;28;20460;-74
2022/12/22 04:42:38;;;;;;;21.27;15.30;;;;;;;2.70;100.00;95435.69;5055004;28;20459;-75
2022/12/22 04:45:06;;;;;;;18.60;15.20;;;;;;;2.82;100.00;95444.53;5066932;28;20949;-74
2022/12/22 04:47:32;;;;;;;20.27;15.20;;;;;;;2.91;100.00;95458.38;5061543;28;20451;-75
2022/12/22 04:49:59;;;;;;;20.70;15.33;;;;;;;2.90;100.00;95448.25;5062628;28;20444;-74
2022/12/22 04:52:26;;;;;;;19.73;14.00;;;;;;;3.01;100.00;95451.38;5064061;28;20506;-75
2022/12/22 04:54:52;;;;;;;16.43;14.50;;;;;;;3.03;100.00;95436.94;5073183;28;20481;-74
2022/12/22 04:57:20;;;;;;;21.57;14.87;;;;;;;2.90;100.00;95422.91;5063464;28;20481;-74
2022/12/22 04:59:46;;;;;;;18.80;15.13;;;;;;;3.07;100.00;95432.69;5054740;28;20548;-74
2022/12/22 05:02:13;;;;;;;21.53;13.47;;;;;;;2.96;100.00;95406.06;5060668;28;20568;-75
2022/12/22 05:04:40;;;;;;;18.87;13.93;;;;;;;2.97;100.00;95399.00;5047950;28;20441;-75
2022/12/22 05:07:07;;;;;;;20.30;13.90;;;;;;;3.26;100.00;95429.84;5063290;28;20506;-75
2022/12/22 05:09:36;;;;;;;17.33;13.70;;;;;;;3.25;100.00;95428.31;5065462;28;20426;-75
2022/12/22 05:12:53;;;;;;;20.77;15.57;;;;;;;3.29;100.00;95429.22;5063824;28;20444;-75
2022/12/22 05:14:50;;;;;;;19.30;12.83;;;;;;;2.78;100.00;95357.44;5056403;28;20468;-75
2022/12/22 05:17:16;;;;;;;19.53;15.40;;;;;;;3.01;100.00;95389.50;5070991;28;20475;-75
2022/12/22 05:19:43;;;;;;;17.43;13.33;;;;;;;3.26;100.00;95416.78;5070894;28;20475;-75
2022/12/22 05:22:10;;;;;;;17.20;13.00;;;;;;;3.29;100.00;95426.63;5057495;28;20464;-75
2022/12/22 05:24:36;;;;;;;19.83;13.03;;;;;;;3.13;100.00;95397.53;5065765;28;20785;-75
2022/12/22 05:27:03;;;;;;;16.27;14.23;;;;;;;3.08;100.00;95384.63;5071999;28;20480;-75
2022/12/22 05:29:30;;;;;;;16.60;13.60;;;;;;;3.17;100.00;95408.91;5061246;28;20447;-75
2022/12/22 05:31:57;;;;;;;17.77;13.40;;;;;;;3.21;100.00;95393.44;5050356;28;20515;-75
2022/12/22 05:34:23;;;;;;;16.00;12.60;;;;;;;3.32;100.00;95399.91;5070717;28;20527;-75
2022/12/22 05:36:51;;;;;;;16.90;12.30;;;;;;;3.04;100.00;95381.03;5057248;28;20435;-75
2022/12/22 05:39:18;;;;;;;15.90;14.10;;;;;;;3.10;100.00;95426.09;5060560;28;20429;-76
2022/12/22 05:41:45;;;;;;;19.53;13.73;;;;;;;3.38;100.00;95430.03;5067943;28;20432;-76
2022/12/22 05:44:12;;;;;;;15.17;13.37;;;;;;;3.24;100.00;95404.03;5069863;28;20948;-76
2022/12/22 05:46:38;;;;;;;16.00;13.97;;;;;;;3.49;100.00;95428.72;5067629;28;20514;-76
2022/12/22 05:49:05;;;;;;;15.90;13.63;;;;;;;3.41;100.00;95402.53;5066614;28;20533;-76
2022/12/22 05:51:32;;;;;;;17.37;12.50;;;;;;;3.36;100.00;95407.91;5071714;28;20847;-76
2022/12/22 05:53:59;;;;;;;16.00;13.97;;;;;;;3.43;100.00;95413.47;5070545;28;20448;-76
2022/12/22 05:56:25;;;;;;;17.23;13.40;;;;;;;3.38;100.00;95403.94;5082312;28;21015;-76
2022/12/22 05:58:52;;;;;;;16.07;13.00;;;;;;;3.65;100.00;95436.91;5070321;28;21003;-76
2022/12/22 06:01:18;;;;;;;14.73;12.97;;;;;;;3.47;100.00;95423.03;5055775;28;20538;-76
2022/12/22 06:03:45;;;;;;;15.83;13.27;;;;;;;3.60;100.00;95439.63;5050111;28;20477;-76
2022/12/22 06:06:12;;;;;;;16.87;13.30;;;;;;;3.65;100.00;95433.50;5049526;28;20951;-76
2022/12/22 06:08:38;;;;;;;15.60;13.53;;;;;;;3.66;100.00;95433.22;5060883;28;20500;-76
2022/12/22 06:11:05;;;;;;;14.83;12.77;;;;;;;3.34;100.00;95389.94;5070347;28;20782;-75
2022/12/22 06:13:32;;;;;;;15.97;11.83;;;;;;;3.37;100.00;95399.78;5070218;28;21035;-75
2022/12/22 06:15:59;;;;;;;17.17;13.40;;;;;;;3.36;100.00;95397.47;5070945;28;20432;-76
2022/12/22 06:18:25;;;;;;;14.90;13.40;;;;;;;3.45;100.00;95437.44;5072318;28;20424;-76
2022/12/22 06:20:53;;;;;;;18.10;14.67;;;;;;;3.40;100.00;95430.50;5069722;28;20440;-76
2022/12/22 06:23:21;;;;;;;16.43;13.03;;;;;;;3.28;100.00;95396.34;5062330;28;20460;-76
2022/12/22 06:25:58;;;;;;;15.90;13.17;;;;;;;3.35;100.00;95428.03;5065223;28;20437;-76
2022/12/22 06:28:26;;;;;;;13.50;12.10;;;;;;;3.54;100.00;95433.00;5064162;28;20451;-76
2022/12/22 06:30:54;;;;;;;13.70;10.87;;;;;;;3.46;100.00;95433.75;5064731;28;20516;-75
2022/12/22 06:33:20;;;;;;;16.87;12.50;;;;;;;3.13;100.00;95378.47;5063354;28;20980;-76
2022/12/22 06:35:47;;;;;;;14.27;12.77;;;;;;;3.55;100.00;95432.72;5066213;28;20446;-75
2022/12/22 06:38:23;;;;;;;15.40;12.13;;;;;;;3.21;100.00;95375.16;5071115;28;20796;-76
2022/12/22 06:40:49;;;;;;;16.00;12.60;;;;;;;3.57;100.00;95429.78;5071072;28;20431;-74
2022/12/22 06:43:16;;;;;;;18.17;14.27;;;;;;;3.54;100.00;95428.56;5057489;28;20460;-75
2022/12/22 06:45:43;;;;;;;15.73;13.57;;;;;;;3.26;100.00;95393.28;5071008;28;20428;-75
2022/12/22 06:48:11;;;;;;;17.00;15.03;;;;;;;3.54;100.00;95425.94;5072256;28;20467;-75
2022/12/22 06:50:38;;;;;;;14.60;11.93;;;;;;;3.28;100.00;95395.59;5081391;28;20811;-75
2022/12/22 06:53:06;;;;;;;16.60;14.43;;;;;;;3.42;100.00;95407.47;5069435;28;20889;-75
2022/12/22 06:55:33;;;;;;;15.03;13.40;;;;;;;3.32;100.00;95389.44;5063064;28;20535;-75
2022/12/22 06:58:00;;;;;;;16.50;14.80;;;;;;;3.48;100.00;95414.09;5065988;28;20877;-75
2022/12/22 07:00:27;;;;;;;16.40;14.80;;;;;;;3.42;100.00;95391.78;5060051;28;20809;-76
2022/12/22 07:02:54;;;;;;;14.97;12.83;;;;;;;3.63;100.00;95412.91;5057181;28;20459;-78
2022/12/22 07:05:24;;;;;;;16.33;14.10;;;;;;;3.20;100.00;95332.56;5072047;28;20486;-78
2022/12/22 07:07:51;;;;;;;25.03;17.67;;;;;;;3.60;100.00;95408.28;5074605;28;20487;-77
2022/12/22 07:10:56;;;;;;;19.00;15.07;;;;;;;3.55;100.00;95385.69;5074187;28;20423;-79
2022/12/22 07:13:17;;;;;;;16.93;13.60;;;;;;;3.59;100.00;95375.38;5063441;28;20459;-79
2022/12/22 07:15:46;;;;;;;15.90;13.47;;;;;;;3.40;100.00;95331.25;5061829;28;20451;-78
2022/12/22 07:18:23;;;;;;;14.20;12.00;;;;;;;3.54;100.00;95355.41;5076591;28;20443;-77
2022/12/22 07:20:49;;;;;;;18.40;13.33;;;;;;;3.61;100.00;95381.09;5072558;28;20440;-78
2022/12/22 07:23:16;;;;;;;14.10;12.53;;;;;;;3.72;100.00;95400.63;5066660;28;21006;-78
2022/12/22 07:25:43;;;;;;;13.80;11.47;;;;;;;3.43;100.00;95361.22;5063182;28;20435;-80
2022/12/22 07:28:10;;;;;;;15.87;12.70;;;;;;;3.35;100.00;95349.69;5065354;28;20546;-78
2022/12/22 07:30:43;;;;;;;21.97;17.60;;;;;;;3.66;100.00;95382.78;5076809;28;20460;-78
2022/12/22 07:33:10;;;;;;;17.20;14.27;;;;;;;3.58;100.00;95373.84;5075131;28;20538;-77
2022/12/22 07:35:37;;;;;;;16.50;12.03;;;;;;;3.35;100.00;95334.00;5076523;28;20521;-78
2022/12/22 07:38:03;;;;;;;16.00;12.70;;;;;;;3.30;100.00;95341.19;5048063;28;20429;-78
2022/12/22 07:40:30;;;;;;;20.60;15.50;;;;;;;3.15;100.00;95298.00;5067831;28;20994;-78
2022/12/22 07:42:58;;;;;;;14.83;13.33;;;;;;;3.75;100.00;95371.28;5070067;28;20936;-79
2022/12/22 07:45:25;;;;;;;13.73;11.90;;;;;;;3.74;100.00;95363.72;5071914;28;20425;-79
2022/12/22 07:47:58;;;;;;;14.80;13.30;;;;;;;3.94;100.00;95391.13;5065323;28;20449;-78
2022/12/22 07:50:26;;;;;;;13.10;11.60;;;;;;;3.98;100.00;95386.81;5067999;28;20449;-78
2022/12/22 07:52:58;;;;;;;15.70;13.43;;;;;;;3.72;100.00;95331.88;5053883;28;20468;-78
2022/12/22 07:55:28;;;;;;;14.20;11.97;;;;;;;3.98;100.00;95382.34;5080993;28;20966;-78
2022/12/22 07:57:54;;;;;;;13.47;10.80;;;;;;;4.00;100.00;95372.34;5062870;28;20539;-78
2022/12/22 08:00:25;;;;;;;12.53;10.53;;;;;;;3.94;100.00;95368.34;5076611;28;20539;-78
2022/12/22 08:02:54;;;;;;;12.77;11.43;;;;;;;4.01;100.00;95366.06;5055925;28;20460;-78
2022/12/22 08:05:22;;;;;;;13.63;11.97;;;;;;;4.07;100.00;95358.81;5092660;28;20940;-78
2022/12/22 08:07:50;;;;;;;17.90;12.30;;;;;;;4.06;100.00;95354.69;5058603;28;20832;-78
2022/12/22 08:10:19;;;;;;;12.93;10.40;;;;;;;2.62;100.00;95130.06;5076385;28;20464;-79
2022/12/22 08:12:45;;;;;;;14.93;11.47;;;;;;;3.82;100.00;95289.78;5079565;28;20575;-79
2022/12/22 08:15:12;;;;;;;12.50;10.93;;;;;;;4.16;100.00;95343.91;5084685;28;20526;-79
2022/12/22 08:17:39;;;;;;;11.30;9.70;;;;;;;4.10;100.00;95324.97;5060589;28;20459;-78
2022/12/22 08:20:07;;;;;;;11.57;9.80;;;;;;;4.10;100.00;95327.59;5090782;28;20420;-79
2022/12/22 08:22:33;;;;;;;13.17;10.23;;;;;;;3.60;100.00;95245.50;5073842;28;20452;-79
2022/12/22 08:25:00;;;;;;;11.40;10.20;;;;;;;3.91;100.00;95315.91;5071500;28;20428;-80
2022/12/22 08:27:39;;;;;;;13.00;10.40;;;;;;;4.24;100.00;95347.59;5079785;28;20470;-79
2022/12/22 08:30:06;;;;;;;10.60;9.50;;;;;;;4.35;100.00;95349.56;5082388;28;20444;-79
2022/12/22 08:32:36;;;;;;;11.23;9.97;;;;;;;4.32;100.00;95336.34;5085448;28;20457;-79
2022/12/22 08:35:05;;;;;;;9.50;8.70;;;;;;;4.16;100.00;95325.59;5073513;28;20508;-76
2022/12/22 08:37:39;;;;;;;9.97;8.63;;;;;;;4.41;100.00;95331.88;5073687;28;20429;-76
2022/12/22 08:40:11;;;;;;;11.77;8.97;;;;;;;4.31;100.00;95319.13;5077300;28;20445;-77
2022/12/22 08:42:39;;;;;;;14.60;11.10;;;;;;;3.36;100.00;95167.59;5075935;28;20457;-77
2022/12/22 08:45:08;;;;;;;11.27;8.90;;;;;;;4.26;100.00;95311.41;5076089;28;20796;-76
2022/12/22 08:47:34;;;;;;;10.63;8.00;;;;;;;4.49;100.00;95327.69;5086765;28;20464;-78
2022/12/22 08:50:02;;;;;;;7.23;6.20;;;;;;;4.69;100.00;95312.09;5089993;28;20443;-78
2022/12/22 08:52:30;;;;;;;8.30;7.50;;;;;;;4.84;100.00;95318.66;5058579;28;20827;-77
2022/12/22 08:54:56;;;;;;;7.60;6.37;;;;;;;4.87;100.00;95306.78;5074991;28;20428;-77
2022/12/22 08:57:23;;;;;;;8.77;6.10;;;;;;;4.98;100.00;95313.97;5064059;28;20437;-77
2022/12/22 08:59:50;;;;;;;8.30;6.20;;;;;;;4.83;100.00;95287.56;5067080;28;20460;-77
2022/12/22 09:02:17;;;;;;;10.40;7.00;;;;;;;5.04;100.00;95320.56;5065752;28;20451;-78
2022/12/22 09:04:44;;;;;;;6.13;5.53;;;;;;;5.38;100.00;95339.06;5074069;28;20433;-76
2022/12/22 09:07:11;;;;;;;12.70;8.17;;;;;;;5.37;100.00;95340.94;5057938;28;20444;-78
2022/12/22 09:09:38;;;;;;;8.63;7.70;;;;;;;5.04;100.00;95298.84;5077700;28;20452;-78
2022/12/22 09:12:05;;;;;;;7.60;6.07;;;;;;;5.44;100.00;95350.91;5074876;28;20429;-77
2022/12/22 09:14:32;;;;;;;7.20;6.30;;;;;;;5.50;100.00;95355.66;5061451;28;20447;-78
2022/12/22 09:16:59;;;;;;;10.23;6.33;;;;;;;5.53;100.00;95349.00;5061601;28;20454;-77
2022/12/22 09:19:25;;;;;;;7.67;5.33;;;;;;;5.54;100.00;95321.69;5072925;28;20956;-77
2022/12/22 09:21:53;;;;;;;8.40;7.47;;;;;;;5.70;100.00;95341.03;5073093;28;20474;-76
2022/12/22 09:24:20;;;;;;;8.10;5.97;;;;;;;5.84;100.00;95357.28;5059603;28;20494;-77
2022/12/22 09:26:47;;;;;;;5.90;5.03;;;;;;;5.79;100.00;95346.22;5074068;28;20971;-77
2022/12/22 09:29:16;;;;;;;9.67;5.30;;;;;;;5.75;100.00;95340.09;5075922;28;20494;-78
2022/12/22 09:31:43;;;;;;;7.40;5.40;;;;;;;5.96;100.00;95347.97;5076825;28;20436;-79
2022/12/22 09:34:10;;;;;;;5.93;5.40;;;;;;;5.84;100.00;95338.91;5075450;28;20833;-77
2022/12/22 09:36:44;;;;;;;5.73;5.10;;;;;;;5.74;100.00;95330.66;5060668;28;20425;-79
2022/12/22 09:39:11;;;;;;;5.13;4.00;;;;;;;5.96;100.00;95355.84;5064260;28;20441;-76
2022/12/22 09:41:53;;;;;;;4.77;3.90;;;;;;;5.63;100.00;95299.59;5051170;28;20447;-77
2022/12/22 09:44:28;;;;;;;6.77;5.73;;;;;;;6.05;100.00;95359.94;5082774;28;20486;-77
2022/12/22 09:46:59;;;;;;;20.90;9.57;;;;;;;6.14;100.00;95357.25;5057389;28;20447;-77
2022/12/22 09:49:27;;;;;;;5.83;4.10;;;;;;;6.02;100.00;95344.09;5066398;28;20563;-77
2022/12/22 09:51:59;;;;;;;4.33;3.93;;;;;;;5.95;100.00;95312.34;5044099;28;20511;-77
2022/12/22 09:54:27;;;;;;;6.00;4.40;;;;;;;6.23;100.00;95363.19;5058489;28;20448;-78
2022/12/22 09:56:55;;;;;;;3.80;2.80;;;;;;;6.01;100.00;95319.72;5084428;28;20424;-77
2022/12/22 09:59:26;;;;;;;4.93;2.83;;;;;;;6.16;100.00;95360.34;5055413;28;20428;-77
2022/12/22 10:02:10;;;;;;;3.33;3.00;;;;;;;6.36;100.00;95372.66;5062584;28;20538;-79
2022/12/22 10:04:56;;;;;;;6.87;3.90;;;;;;;6.43;100.00;95359.03;5054826;28;20949;-77
2022/12/22 10:07:29;;;;;;;6.07;3.37;;;;;;;6.46;100.00;95361.00;5069647;28;20448;-78
2022/12/22 10:09:55;;;;;;;5.97;4.00;;;;;;;6.47;100.00;95352.78;5065825;28;20445;-77
2022/12/22 10:12:24;;;;;;;20.80;13.17;;;;;;;6.32;100.00;95316.66;5068210;28;20788;-76
2022/12/22 10:14:52;;;;;;;8.03;5.40;;;;;;;6.52;100.00;95331.56;5046685;28;20472;-78
2022/12/22 10:17:27;;;;;;;5.53;3.03;;;;;;;6.91;100.00;95362.84;5058388;28;20459;-78
2022/12/22 10:20:13;;;;;;;6.40;3.00;;;;;;;7.07;100.00;95366.38;5074869;28;20462;-77
2022/12/22 10:22:59;;;;;;;12.23;9.10;;;;;;;7.23;100.00;95379.66;5061069;28;20516;-76
2022/12/22 10:25:32;;;;;;;10.40;5.10;;;;;;;7.43;100.00;95384.03;5074480;28;20512;-76
2022/12/22 10:28:26;;;;;;;39.70;21.97;;;;;;;7.51;100.00;95380.56;5042737;28;20465;-77
2022/12/22 10:31:16;;;;;;;75.60;40.10;;;;;;;7.63;100.00;95392.94;5060490;28;20911;-76
2022/12/22 10:33:45;;;;;;;41.83;22.13;;;;;;;7.50;100.00;95370.38;5056398;28;20525;-77
2022/12/22 10:36:26;;;;;;;6.90;4.20;;;;;;;7.55;100.00;95388.53;5070269;28;20797;-77
2022/12/22 10:38:55;;;;;;;20.77;13.83;;;;;;;7.30;100.00;95364.88;5040326;28;20439;-77
2022/12/22 10:41:26;;;;;;;13.47;10.23;;;;;;;7.34;100.00;95368.38;5069835;28;20482;-77
2022/12/22 10:43:59;;;;;;;8.50;4.97;;;;;;;7.38;100.00;95386.91;5069899;28;20488;-77
2022/12/22 10:46:33;;;;;;;8.30;3.70;;;;;;;7.34;100.00;95381.50;5069714;28;20444;-76
2022/12/22 10:49:15;;;;;;;6.20;3.77;;;;;;;7.22;100.00;95383.41;5079160;28;20565;-77
2022/12/22 10:51:44;;;;;;;9.53;6.70;;;;;;;7.26;100.00;95386.91;5071244;28;20481;-77
2022/12/22 10:54:44;;;;;;;6.00;3.30;;;;;;;7.35;100.00;95375.19;5071077;28;20543;-77
2022/12/22 10:57:14;;;;;;;51.03;41.00;;;;;;;7.37;100.00;95374.84;5044574;28;20539;-77
2022/12/22 11:00:08;;;;;;;8.87;4.13;;;;;;;7.39;100.00;95375.28;5064182;28;20427;-77
2022/12/22 11:02:37;;;;;;;3.33;2.10;;;;;;;7.39;100.00;95377.91;5062987;28;20479;-76
2022/12/22 11:05:07;;;;;;;6.30;2.73;;;;;;;7.39;100.00;95383.19;5058192;28;20454;-76
2022/12/22 11:07:41;;;;;;;5.07;4.60;;;;;;;7.20;100.00;95351.38;5051994;28;20425;-77
2022/12/22 11:10:14;;;;;;;8.13;3.23;;;;;;;7.38;100.00;95381.66;5055795;28;20428;-78
2022/12/22 11:13:05;;;;;;;4.60;2.07;;;;;;;7.41;100.00;95380.97;5074423;28;20467;-78
2022/12/22 11:15:41;;;;;;;8.27;3.80;;;;;;;7.40;100.00;95374.19;5073888;28;20421;-77
2022/12/22 11:18:24;;;;;;;5.43;3.40;;;;;;;7.36;100.00;95376.72;5055145;28;20427;-76
2022/12/22 11:20:58;;;;;;;3.33;2.10;;;;;;;7.21;100.00;95351.09;5072025;28;20440;-77
2022/12/22 11:23:35;;;;;;;3.93;2.40;;;;;;;7.32;100.00;95356.66;5043042;28;21079;-76
2022/12/22 11:26:44;;;;;;;4.90;4.23;;;;;;;7.56;100.00;95369.03;5077109;28;20539;-78
2022/12/22 11:29:20;;;;;;;3.23;1.90;;;;;;;7.74;100.00;95385.34;5059268;28;20459;-77
2022/12/22 11:32:07;;;;;;;10.03;2.23;;;;;;;7.87;100.00;95377.09;5072326;28;20522;-78
2022/12/22 11:35:11;;;;;;;8.80;2.73;;;;;;;7.69;100.00;95350.28;5063834;28;20995;-77
2022/12/22 11:38:03;;;;;;;5.60;3.27;;;;;;;7.82;100.00;95371.31;5063872;28;20522;-78
2022/12/22 11:40:51;;;;;;;3.33;2.57;;;;;;;7.82;100.00;95371.31;5065553;28;20538;-78
2022/12/22 11:43:29;;;;;;;6.00;2.40;;;;;;;7.82;100.00;95363.41;5071575;28;20501;-77
2022/12/22 11:46:20;;;;;;;8.40;3.27;;;;;;;7.84;100.00;95363.84;5056086;28;20451;-77
2022/12/22 11:49:09;;;;;;;6.57;3.77;;;;;;;7.78;100.00;95354.66;5080337;28;20557;-78
2022/12/22 11:51:38;;;;;;;5.23;1.40;;;;;;;7.74;100.00;95354.53;5073445;28;20477;-78
2022/12/22 11:54:14;;;;;;;4.47;3.57;;;;;;;7.59;100.00;95331.53;5073789;28;20452;-77
2022/12/22 11:56:50;;;;;;;2.37;2.17;;;;;;;7.48;100.00;95319.94;5081206;28;20498;-77
2022/12/22 11:59:36;;;;;;;6.17;4.93;;;;;;;7.43;100.00;95313.03;5075188;28;20857;-77
2022/12/22 12:02:41;;;;;;;6.67;2.27;;;;;;;7.33;100.00;95311.63;5075943;28;20830;-77
2022/12/22 12:05:30;;;;;;;4.80;2.53;;;;;;;7.28;100.00;95303.22;5065744;28;20428;-77
2022/12/22 12:08:05;;;;;;;9.50;3.73;;;;;;;7.22;100.00;95294.03;5077022;28;20431;-79
2022/12/22 12:10:43;;;;;;;11.93;6.73;;;;;;;7.12;100.00;95292.59;5078109;28;20511;-78
2022/12/22 12:13:22;;;;;;;5.50;3.90;;;;;;;7.14;100.00;95294.88;5048789;28;20448;-79
2022/12/22 12:16:17;;;;;;;6.10;4.13;;;;;;;7.07;100.00;95284.91;5060230;28;20438;-77
2022/12/22 12:18:56;;;;;;;6.67;3.97;;;;;;;7.09;100.00;95288.75;5074968;28;20448;-77
2022/12/22 12:21:28;;;;;;;4.87;2.07;;;;;;;7.02;100.00;95295.66;5068150;28;20476;-77
2022/12/22 12:24:07;;;;;;;4.30;2.47;;;;;;;6.92;100.00;95288.97;5068193;28;20467;-77
2022/12/22 12:26:59;;;;;;;3.83;2.50;;;;;;;7.01;100.00;95291.50;5067338;28;20416;-76
2022/12/22 12:29:51;;;;;;;9.87;3.30;;;;;;;6.98;100.00;95279.78;5063489;28;20932;-77
2022/12/22 12:32:46;;;;;;;6.17;1.60;;;;;;;6.89;100.00;95281.75;5051606;28;20456;-76
2022/12/22 12:35:39;;;;;;;3.70;2.37;;;;;;;6.84;100.00;95275.94;5062153;28;20433;-77
2022/12/22 12:38:44;;;;;;;5.90;1.67;;;;;;;6.88;100.00;95269.69;5017531;28;20429;-76
2022/12/22 12:41:57;;;;;;;2.77;2.03;;;;;;;6.85;100.00;95278.25;5064028;28;20432;-76
2022/12/22 12:44:27;;;;;;;1.90;1.60;;;;;;;6.84;100.00;95265.44;5073476;28;20425;-76
2022/12/22 12:47:03;;;;;;;6.53;1.73;;;;;;;6.48;100.00;95228.31;5073950;28;20424;-77
2022/12/22 12:49:32;;;;;;;2.40;1.90;;;;;;;6.79;100.00;95271.66;5074380;28;20492;-78
2022/12/22 12:52:01;;;;;;;2.93;2.73;;;;;;;6.65;100.00;95240.47;5064144;28;20437;-78
2022/12/22 12:54:27;;;;;;;4.07;1.97;;;;;;;6.84;100.00;95275.94;5066390;28;20432;-77
2022/12/22 12:56:54;;;;;;;3.00;2.17;;;;;;;6.87;100.00;95270.78;5080947;28;20469;-76
2022/12/22 12:59:39;;;;;;;1.70;1.57;;;;;;;6.84;100.00;95274.09;5070353;28;20427;-76
2022/12/22 13:02:28;;;;;;;5.53;2.53;;;;;;;6.80;100.00;95275.81;5062047;28;20489;-76
2022/12/22 13:05:16;;;;;;;5.30;1.73;;;;;;;6.83;100.00;95277.81;5055033;28;20477;-76
2022/12/22 13:08:16;;;;;;;4.77;2.03;;;;;;;6.89;100.00;95279.13;5054843;28;20523;-77
2022/12/22 13:11:07;;;;;;;3.53;1.80;;;;;;;6.79;100.00;95266.41;5059228;28;20428;-77
2022/12/22 13:13:34;;;;;;;3.47;1.53;;;;;;;6.90;100.00;95282.50;5071772;28;20555;-76
2022/12/22 13:16:01;;;;;;;4.50;2.20;;;;;;;6.88;100.00;95282.84;5073863;28;20429;-77
2022/12/22 13:18:27;;;;;;;1.97;1.20;;;;;;;6.85;100.00;95280.88;5071353;28;20425;-78
2022/12/22 13:21:24;;;;;;;3.40;2.20;;;;;;;6.89;100.00;95275.72;5071373;28;20428;-78
2022/12/22 13:24:14;;;;;;;3.60;2.07;;;;;;;6.90;100.00;95283.28;5059112;28;20451;-77
2022/12/22 13:26:54;;;;;;;2.03;1.60;;;;;;;6.65;100.00;95244.94;5059098;28;20917;-77
2022/12/22 13:29:20;;;;;;;3.50;1.57;;;;;;;6.89;100.00;95281.75;5072457;28;20464;-78
2022/12/22 13:31:51;;;;;;;3.47;1.77;;;;;;;6.90;100.00;95278.00;5071132;28;20426;-77
2022/12/22 13:34:21;;;;;;;3.73;1.20;;;;;;;6.89;100.00;95278.34;5060100;28;20476;-77
2022/12/22 13:36:49;;;;;;;2.60;1.60;;;;;;;6.78;100.00;95265.63;5070977;28;20452;-78
2022/12/22 13:39:16;;;;;;;3.30;1.17;;;;;;;6.73;100.00;95267.72;5071131;28;20463;-78
2022/12/22 13:41:45;;;;;;;1.70;1.37;;;;;;;6.76;100.00;95256.56;5051567;28;20466;-78
2022/12/22 13:44:30;;;;;;;6.03;1.20;;;;;;;6.76;100.00;95275.72;5063478;28;20453;-78
2022/12/22 13:47:12;;;;;;;3.10;1.53;;;;;;;6.95;100.00;95295.44;5073115;28;21030;-77
2022/12/22 13:49:41;;;;;;;1.60;1.33;;;;;;;6.66;100.00;95259.59;5083192;28;20447;-77
2022/12/22 13:52:27;;;;;;;3.73;1.20;;;;;;;6.69;100.00;95267.63;5071167;28;20456;-78
2022/12/22 13:54:54;;;;;;;2.17;1.53;;;;;;;6.73;100.00;95272.97;5067381;28;20886;-77
2022/12/22 13:57:24;;;;;;;5.07;2.23;;;;;;;6.60;100.00;95258.28;5079359;28;20940;-77
2022/12/22 13:59:51;;;;;;;2.80;1.70;;;;;;;6.55;100.00;95245.38;5073720;28;20432;-78
2022/12/22 14:02:20;;;;;;;0.90;0.90;;;;;;;6.76;100.00;95286.22;5073040;28;20497;-78
2022/12/22 14:05:06;;;;;;;1.47;1.00;;;;;;;6.85;100.00;95291.38;5075715;28;20440;-76
2022/12/22 14:07:33;;;;;;;3.57;1.53;;;;;;;6.86;100.00;95305.28;5071268;28;20801;-76
2022/12/22 14:10:00;;;;;;;2.90;1.47;;;;;;;6.70;100.00;95273.63;5051680;28;20465;-78
2022/12/22 14:12:30;;;;;;;1.20;1.03;;;;;;;6.86;100.00;95306.03;5068868;28;20891;-77
2022/12/22 14:15:00;;;;;;;0.90;0.80;;;;;;;6.73;100.00;95294.00;5074871;28;20424;-77
2022/12/22 14:17:27;;;;;;;3.17;1.97;;;;;;;6.89;100.00;95296.75;5073324;28;20493;-76
2022/12/22 14:19:59;;;;;;;1.57;1.37;;;;;;;6.85;100.00;95324.75;5072974;28;20470;-77
2022/12/22 14:22:32;;;;;;;1.17;0.97;;;;;;;6.90;100.00;95333.19;5071017;28;20464;-77
2022/12/22 14:25:08;;;;;;;1.33;1.23;;;;;;;6.62;100.00;95287.63;5042224;28;20429;-77
2022/12/22 14:27:43;;;;;;;1.20;1.10;;;;;;;6.97;100.00;95343.94;5057791;28;20443;-77
2022/12/22 14:30:22;;;;;;;2.07;1.87;;;;;;;7.01;100.00;95349.31;5075671;28;20472;-78
2022/12/22 14:32:53;;;;;;;8.33;5.60;;;;;;;6.98;100.00;95352.59;5064987;28;20544;-77
2022/12/22 14:35:21;;;;;;;6.10;3.83;;;;;;;7.00;100.00;95353.78;5071831;28;20432;-78
2022/12/22 14:37:49;;;;;;;6.30;1.60;;;;;;;6.87;100.00;95341.72;5061035;28;20436;-81
2022/12/22 14:40:31;;;;;;;4.40;3.40;;;;;;;6.98;100.00;95358.59;5072711;28;20459;-78
2022/12/22 14:43:00;;;;;;;5.53;2.73;;;;;;;7.00;100.00;95368.78;5061983;28;20457;-78
2022/12/22 14:45:27;;;;;;;3.13;1.73;;;;;;;6.63;100.00;95308.31;5064245;28;20960;-78
2022/12/22 14:47:57;;;;;;;2.30;1.53;;;;;;;6.86;100.00;95349.94;5067075;28;20442;-78
2022/12/22 14:50:26;;;;;;;2.10;2.00;;;;;;;6.79;100.00;95345.97;5085078;28;20456;-77
2022/12/22 14:52:55;;;;;;;3.30;2.23;;;;;;;6.65;100.00;95326.34;5072350;28;20452;-77
2022/12/22 14:55:28;;;;;;;2.37;1.33;;;;;;;6.90;100.00;95366.56;5076103;28;20492;-78
2022/12/22 14:58:00;;;;;;;1.73;1.40;;;;;;;6.73;100.00;95344.66;5075723;28;20420;-75
2022/12/22 15:00:29;;;;;;;1.60;1.50;;;;;;;6.92;100.00;95372.25;5078216;28;20431;-78
2022/12/22 15:03:02;;;;;;;1.43;1.33;;;;;;;6.90;100.00;95393.63;5052577;28;20483;-78
2022/12/22 15:05:35;;;;;;;1.60;1.50;;;;;;;6.87;100.00;95381.13;5065913;28;20416;-78
2022/12/22 15:08:03;;;;;;;2.07;1.50;;;;;;;6.89;100.00;95386.06;5060738;28;20416;-78
2022/12/22 15:10:43;;;;;;;1.50;1.40;;;;;;;6.67;100.00;95356.44;5059323;28;20453;-78
2022/12/22 15:13:17;;;;;;;2.10;2.00;;;;;;;6.74;100.00;95369.06;5072649;28;20452;-77
2022/12/22 15:15:43;;;;;;;1.70;1.60;;;;;;;6.89;100.00;95402.59;5073183;28;20444;-78
2022/12/22 15:18:13;;;;;;;2.50;1.27;;;;;;;6.78;100.00;95381.22;5056069;28;20435;-78
2022/12/22 15:20:40;;;;;;;1.80;1.50;;;;;;;6.88;100.00;95411.56;5059447;28;21056;-78
2022/12/22 15:23:15;;;;;;;1.47;1.37;;;;;;;6.68;100.00;95386.91;5066790;28;20557;-78
2022/12/22 15:25:42;;;;;;;1.23;1.13;;;;;;;6.69;100.00;95388.44;5077495;28;20444;-78